sensor_id;sensor_type;location;lat;lon;timestamp;pressure;altitude;pressure_sealevel;temperature;humidity
33506;BME280;19843;51.040;13.782;2024-01-30T00:00:06;101860.31;;;8.05;56.04
33506;BME280;19843;51.040;13.782;2024-01-30T00:02:38;101850.41;;;7.94;56.10
33506;BME280;19843;51.040;13.782;2024-01-30T00:05:05;101848.88;;;8.51;54.58
33506;BME280;19843;51.040;13.782;2024-01-30T00:07:33;101849.00;;;8.31;55.34
33506;BME280;19843;51.040;13.782;2024-01-30T00:10:01;101853.66;;;8.01;55.84
33506;BME280;19843;51.040;13.782;2024-01-30T00:12:28;101847.88;;;7.92;55.24
33506;BME280;19843;51.040;13.782;2024-01-30T00:14:56;101848.66;;;8.42;54.39
33506;BME280;19843;51.040;13.782;2024-01-30T00:17:24;101852.25;;;8.09;55.07
33506;BME280;19843;51.040;13.782;2024-01-30T00:19:53;101851.72;;;8.02;55.58
33506;BME280;19843;51.040;13.782;2024-01-30T00:22:21;101843.25;;;8.22;54.92
33506;BME280;19843;51.040;13.782;2024-01-30T00:24:48;101839.53;;;7.98;55.49
33506;BME280;19843;51.040;13.782;2024-01-30T00:27:16;101844.13;;;8.17;54.79
33506;BME280;19843;51.040;13.782;2024-01-30T00:29:43;101839.50;;;8.03;55.06
33506;BME280;19843;51.040;13.782;2024-01-30T00:32:11;101852.38;;;7.88;55.88
33506;BME280;19843;51.040;13.782;2024-01-30T00:34:38;101842.69;;;8.20;55.12
33506;BME280;19843;51.040;13.782;2024-01-30T00:37:07;101853.13;;;7.99;55.77
33506;BME280;19843;51.040;13.782;2024-01-30T00:39:35;101845.75;;;7.79;55.74
33506;BME280;19843;51.040;13.782;2024-01-30T00:42:03;101844.56;;;7.90;55.07
33506;BME280;19843;51.040;13.782;2024-01-30T00:44:31;101844.50;;;8.40;54.37
33506;BME280;19843;51.040;13.782;2024-01-30T00:46:59;101838.16;;;7.95;54.73
33506;BME280;19843;51.040;13.782;2024-01-30T00:49:26;101834.13;;;8.11;54.72
33506;BME280;19843;51.040;13.782;2024-01-30T00:51:54;101837.00;;;8.35;54.12
33506;BME280;19843;51.040;13.782;2024-01-30T00:54:23;101837.81;;;8.02;55.03
33506;BME280;19843;51.040;13.782;2024-01-30T00:56:50;101835.00;;;8.07;54.51
33506;BME280;19843;51.040;13.782;2024-01-30T00:59:18;101844.06;;;7.78;55.17
33506;BME280;19843;51.040;13.782;2024-01-30T01:01:45;101841.53;;;7.87;55.26
33506;BME280;19843;51.040;13.782;2024-01-30T01:04:13;101845.22;;;7.72;55.39
33506;BME280;19843;51.040;13.782;2024-01-30T01:06:41;101846.78;;;7.93;55.13
33506;BME280;19843;51.040;13.782;2024-01-30T01:09:11;101854.78;;;7.56;56.17
33506;BME280;19843;51.040;13.782;2024-01-30T01:11:40;101847.38;;;7.85;55.22
33506;BME280;19843;51.040;13.782;2024-01-30T01:14:07;101844.34;;;7.82;55.39
33506;BME280;19843;51.040;13.782;2024-01-30T01:16:35;101842.47;;;7.67;56.02
33506;BME280;19843;51.040;13.782;2024-01-30T01:19:03;101847.88;;;7.43;56.11
33506;BME280;19843;51.040;13.782;2024-01-30T01:21:31;101842.38;;;7.82;55.31
33506;BME280;19843;51.040;13.782;2024-01-30T01:23:59;101844.28;;;7.92;55.17
33506;BME280;19843;51.040;13.782;2024-01-30T01:26:26;101834.66;;;7.69;55.83
33506;BME280;19843;51.040;13.782;2024-01-30T01:28:55;101852.50;;;7.63;55.78
33506;BME280;19843;51.040;13.782;2024-01-30T01:31:23;101834.94;;;7.73;55.87
33506;BME280;19843;51.040;13.782;2024-01-30T01:33:51;101839.31;;;7.29;56.16
33506;BME280;19843;51.040;13.782;2024-01-30T01:36:19;101830.09;;;7.44;56.24
33506;BME280;19843;51.040;13.782;2024-01-30T01:38:46;101845.63;;;7.55;56.30
33506;BME280;19843;51.040;13.782;2024-01-30T01:41:14;101834.41;;;7.70;56.07
33506;BME280;19843;51.040;13.782;2024-01-30T01:43:41;101844.38;;;7.12;56.87
33506;BME280;19843;51.040;13.782;2024-01-30T01:46:10;101843.13;;;7.49;56.74
33506;BME280;19843;51.040;13.782;2024-01-30T01:48:37;101845.22;;;7.12;56.79
33506;BME280;19843;51.040;13.782;2024-01-30T01:51:06;101834.03;;;7.33;57.11
33506;BME280;19843;51.040;13.782;2024-01-30T01:53:34;101832.50;;;7.61;56.44
33506;BME280;19843;51.040;13.782;2024-01-30T01:56:01;101841.81;;;7.36;57.22
33506;BME280;19843;51.040;13.782;2024-01-30T01:58:29;101840.41;;;7.33;57.15
33506;BME280;19843;51.040;13.782;2024-01-30T02:00:58;101839.56;;;7.38;57.26
33506;BME280;19843;51.040;13.782;2024-01-30T02:03:27;101839.88;;;7.36;57.06
33506;BME280;19843;51.040;13.782;2024-01-30T02:05:56;101835.88;;;7.53;56.53
33506;BME280;19843;51.040;13.782;2024-01-30T02:08:24;101840.03;;;7.60;56.30
33506;BME280;19843;51.040;13.782;2024-01-30T02:10:51;101827.75;;;7.02;57.81
33506;BME280;19843;51.040;13.782;2024-01-30T02:13:19;101826.00;;;7.31;57.22
33506;BME280;19843;51.040;13.782;2024-01-30T02:15:49;101821.19;;;7.47;57.08
33506;BME280;19843;51.040;13.782;2024-01-30T02:18:16;101823.41;;;7.50;57.09
33506;BME280;19843;51.040;13.782;2024-01-30T02:20:45;101826.97;;;7.56;56.83
33506;BME280;19843;51.040;13.782;2024-01-30T02:23:15;101827.53;;;7.53;56.59
33506;BME280;19843;51.040;13.782;2024-01-30T02:25:43;101827.34;;;7.34;56.88
33506;BME280;19843;51.040;13.782;2024-01-30T02:28:11;101836.63;;;7.09;57.54
33506;BME280;19843;51.040;13.782;2024-01-30T02:30:39;101829.09;;;7.14;57.47
33506;BME280;19843;51.040;13.782;2024-01-30T02:33:07;101831.75;;;7.45;57.04
33506;BME280;19843;51.040;13.782;2024-01-30T02:35:34;101822.59;;;7.39;56.71
33506;BME280;19843;51.040;13.782;2024-01-30T02:38:02;101823.69;;;7.43;56.59
33506;BME280;19843;51.040;13.782;2024-01-30T02:40:32;101820.09;;;7.43;57.06
33506;BME280;19843;51.040;13.782;2024-01-30T02:43:00;101811.91;;;7.12;57.72
33506;BME280;19843;51.040;13.782;2024-01-30T02:45:28;101810.13;;;7.37;56.79
33506;BME280;19843;51.040;13.782;2024-01-30T02:47:56;101810.44;;;7.25;57.47
33506;BME280;19843;51.040;13.782;2024-01-30T02:50:23;101812.19;;;7.65;56.20
33506;BME280;19843;51.040;13.782;2024-01-30T02:52:51;101808.38;;;7.51;56.71
33506;BME280;19843;51.040;13.782;2024-01-30T02:55:18;101817.94;;;7.25;57.15
33506;BME280;19843;51.040;13.782;2024-01-30T02:57:47;101804.19;;;7.54;56.38
33506;BME280;19843;51.040;13.782;2024-01-30T03:00:15;101813.09;;;7.56;56.19
33506;BME280;19843;51.040;13.782;2024-01-30T03:02:42;101804.97;;;7.59;56.25
33506;BME280;19843;51.040;13.782;2024-01-30T03:05:10;101806.34;;;7.02;57.96
33506;BME280;19843;51.040;13.782;2024-01-30T03:07:37;101812.97;;;7.22;57.41
33506;BME280;19843;51.040;13.782;2024-01-30T03:10:05;101809.47;;;6.90;58.34
33506;BME280;19843;51.040;13.782;2024-01-30T03:12:33;101811.38;;;7.00;58.04
33506;BME280;19843;51.040;13.782;2024-01-30T03:15:02;101814.25;;;7.39;57.25
33506;BME280;19843;51.040;13.782;2024-01-30T03:17:29;101820.56;;;6.96;58.20
33506;BME280;19843;51.040;13.782;2024-01-30T03:19:57;101820.56;;;6.96;58.46
33506;BME280;19843;51.040;13.782;2024-01-30T03:22:25;101815.16;;;7.25;57.59
33506;BME280;19843;51.040;13.782;2024-01-30T03:24:52;101815.75;;;7.27;57.65
33506;BME280;19843;51.040;13.782;2024-01-30T03:27:20;101809.56;;;7.35;56.89
33506;BME280;19843;51.040;13.782;2024-01-30T03:29:47;101802.63;;;7.37;56.99
33506;BME280;19843;51.040;13.782;2024-01-30T03:32:16;101819.16;;;6.93;58.05
33506;BME280;19843;51.040;13.782;2024-01-30T03:34:43;101818.84;;;7.05;58.18
33506;BME280;19843;51.040;13.782;2024-01-30T03:37:11;101811.16;;;6.76;58.75
33506;BME280;19843;51.040;13.782;2024-01-30T03:39:38;101808.28;;;7.17;58.28
33506;BME280;19843;51.040;13.782;2024-01-30T03:42:06;101808.06;;;6.98;58.29
33506;BME280;19843;51.040;13.782;2024-01-30T03:44:33;101805.16;;;7.29;57.79
33506;BME280;19843;51.040;13.782;2024-01-30T03:47:01;101809.84;;;7.38;57.36
33506;BME280;19843;51.040;13.782;2024-01-30T03:49:30;101812.19;;;7.06;57.87
33506;BME280;19843;51.040;13.782;2024-01-30T03:51:57;101808.25;;;7.12;57.89
33506;BME280;19843;51.040;13.782;2024-01-30T03:54:25;101810.59;;;6.84;58.58
33506;BME280;19843;51.040;13.782;2024-01-30T03:56:52;101797.59;;;6.70;59.20
33506;BME280;19843;51.040;13.782;2024-01-30T03:59:20;101808.03;;;7.08;58.47
33506;BME280;19843;51.040;13.782;2024-01-30T04:01:50;101806.66;;;6.96;58.58
33506;BME280;19843;51.040;13.782;2024-01-30T04:04:19;101810.22;;;7.11;58.03
33506;BME280;19843;51.040;13.782;2024-01-30T04:06:47;101805.50;;;7.17;58.06
33506;BME280;19843;51.040;13.782;2024-01-30T04:09:15;101809.19;;;6.82;59.00
33506;BME280;19843;51.040;13.782;2024-01-30T04:11:42;101801.44;;;6.84;59.05
33506;BME280;19843;51.040;13.782;2024-01-30T04:14:10;101804.94;;;7.10;58.40
33506;BME280;19843;51.040;13.782;2024-01-30T04:16:37;101794.81;;;6.70;59.26
33506;BME280;19843;51.040;13.782;2024-01-30T04:19:05;101790.13;;;6.60;59.05
33506;BME280;19843;51.040;13.782;2024-01-30T04:21:32;101797.69;;;7.19;58.22
33506;BME280;19843;51.040;13.782;2024-01-30T04:24:01;101796.03;;;7.23;57.32
33506;BME280;19843;51.040;13.782;2024-01-30T04:26:29;101802.53;;;6.78;58.56
33506;BME280;19843;51.040;13.782;2024-01-30T04:28:56;101795.13;;;6.48;59.64
33506;BME280;19843;51.040;13.782;2024-01-30T04:31:23;101798.56;;;7.09;58.18
33506;BME280;19843;51.040;13.782;2024-01-30T04:33:51;101809.69;;;7.09;58.22
33506;BME280;19843;51.040;13.782;2024-01-30T04:36:19;101804.41;;;7.13;58.08
33506;BME280;19843;51.040;13.782;2024-01-30T04:38:46;101796.91;;;7.08;58.58
33506;BME280;19843;51.040;13.782;2024-01-30T04:41:15;101803.44;;;6.58;59.61
33506;BME280;19843;51.040;13.782;2024-01-30T04:43:42;101801.16;;;6.85;59.16
33506;BME280;19843;51.040;13.782;2024-01-30T04:46:10;101796.31;;;7.11;58.06
33506;BME280;19843;51.040;13.782;2024-01-30T04:48:37;101794.81;;;6.70;59.13
33506;BME280;19843;51.040;13.782;2024-01-30T04:51:05;101793.47;;;6.47;59.79
33506;BME280;19843;51.040;13.782;2024-01-30T04:53:32;101802.50;;;6.93;58.92
33506;BME280;19843;51.040;13.782;2024-01-30T04:56:00;101783.69;;;6.80;59.09
33506;BME280;19843;51.040;13.782;2024-01-30T04:58:28;101793.97;;;6.74;59.50
33506;BME280;19843;51.040;13.782;2024-01-30T05:00:56;101797.19;;;7.02;59.09
33506;BME280;19843;51.040;13.782;2024-01-30T05:03:24;101805.81;;;7.00;58.32
33506;BME280;19843;51.040;13.782;2024-01-30T05:05:52;101801.66;;;6.98;58.88
33506;BME280;19843;51.040;13.782;2024-01-30T05:08:19;101795.38;;;6.66;59.55
33506;BME280;19843;51.040;13.782;2024-01-30T05:10:47;101799.28;;;6.55;60.30
33506;BME280;19843;51.040;13.782;2024-01-30T05:13:14;101792.84;;;6.80;59.88
33506;BME280;19843;51.040;13.782;2024-01-30T05:15:43;101788.13;;;6.76;59.72
33506;BME280;19843;51.040;13.782;2024-01-30T05:18:11;101800.38;;;6.49;60.18
33506;BME280;19843;51.040;13.782;2024-01-30T05:20:38;101799.81;;;6.62;59.71
33506;BME280;19843;51.040;13.782;2024-01-30T05:23:06;101790.78;;;7.06;59.03
33506;BME280;19843;51.040;13.782;2024-01-30T05:25:33;101789.59;;;6.07;61.58
33506;BME280;19843;51.040;13.782;2024-01-30T05:28:01;101794.16;;;7.03;59.08
33506;BME280;19843;51.040;13.782;2024-01-30T05:30:28;101792.00;;;6.85;59.69
33506;BME280;19843;51.040;13.782;2024-01-30T05:32:57;101783.19;;;6.47;60.30
33506;BME280;19843;51.040;13.782;2024-01-30T05:35:25;101789.00;;;6.56;60.02
33506;BME280;19843;51.040;13.782;2024-01-30T05:37:52;101789.00;;;6.56;61.00
33506;BME280;19843;51.040;13.782;2024-01-30T05:40:19;101780.88;;;6.90;59.89
33506;BME280;19843;51.040;13.782;2024-01-30T05:42:47;101783.19;;;6.42;60.81
33506;BME280;19843;51.040;13.782;2024-01-30T05:45:15;101783.44;;;6.61;60.64
33506;BME280;19843;51.040;13.782;2024-01-30T05:47:42;101789.03;;;6.51;60.76
33506;BME280;19843;51.040;13.782;2024-01-30T05:50:11;101787.38;;;6.19;61.90
33506;BME280;19843;51.040;13.782;2024-01-30T05:52:38;101782.81;;;6.89;59.85
33506;BME280;19843;51.040;13.782;2024-01-30T05:55:07;101787.66;;;6.12;61.60
33506;BME280;19843;51.040;13.782;2024-01-30T05:57:35;101788.66;;;6.78;60.49
33506;BME280;19843;51.040;13.782;2024-01-30T06:00:04;101796.78;;;6.38;61.25
33506;BME280;19843;51.040;13.782;2024-01-30T06:02:32;101785.63;;;6.69;60.44
33506;BME280;19843;51.040;13.782;2024-01-30T06:04:59;101789.78;;;6.82;60.11
33506;BME280;19843;51.040;13.782;2024-01-30T06:07:28;101786.81;;;6.43;61.33
33506;BME280;19843;51.040;13.782;2024-01-30T06:10:02;101775.44;;;6.29;61.43
33506;BME280;19843;51.040;13.782;2024-01-30T06:12:30;101782.84;;;6.69;60.14
33506;BME280;19843;51.040;13.782;2024-01-30T06:14:57;101777.63;;;6.52;60.91
33506;BME280;19843;51.040;13.782;2024-01-30T06:17:25;101780.16;;;6.33;60.72
33506;BME280;19843;51.040;13.782;2024-01-30T06:19:52;101790.94;;;6.60;60.47
33506;BME280;19843;51.040;13.782;2024-01-30T06:22:20;101782.13;;;6.23;61.99
33506;BME280;19843;51.040;13.782;2024-01-30T06:24:49;101782.34;;;6.31;61.56
33506;BME280;19843;51.040;13.782;2024-01-30T06:27:16;101791.47;;;6.62;61.04
33506;BME280;19843;51.040;13.782;2024-01-30T06:29:44;101788.16;;;6.71;60.59
33506;BME280;19843;51.040;13.782;2024-01-30T06:32:12;101787.09;;;6.21;61.75
33506;BME280;19843;51.040;13.782;2024-01-30T06:34:40;101776.19;;;6.80;60.52
33506;BME280;19843;51.040;13.782;2024-01-30T06:37:10;101783.19;;;6.47;60.50
33506;BME280;19843;51.040;13.782;2024-01-30T06:39:38;101773.72;;;6.63;60.95
33506;BME280;19843;51.040;13.782;2024-01-30T06:42:06;101777.66;;;6.16;61.58
33506;BME280;19843;51.040;13.782;2024-01-30T06:44:34;101778.19;;;6.44;61.44
33506;BME280;19843;51.040;13.782;2024-01-30T06:47:01;101786.72;;;6.78;60.16
33506;BME280;19843;51.040;13.782;2024-01-30T06:49:29;101773.44;;;6.55;61.31
33506;BME280;19843;51.040;13.782;2024-01-30T06:51:56;101776.75;;;6.67;60.57
33506;BME280;19843;51.040;13.782;2024-01-30T06:54:24;101775.84;;;6.92;60.14
33506;BME280;19843;51.040;13.782;2024-01-30T06:56:51;101776.75;;;6.77;60.27
33506;BME280;19843;51.040;13.782;2024-01-30T06:59:20;101780.06;;;6.79;60.40
33506;BME280;19843;51.040;13.782;2024-01-30T07:01:47;101785.00;;;6.98;59.44
33506;BME280;19843;51.040;13.782;2024-01-30T07:04:15;101779.59;;;6.47;61.22
33506;BME280;19843;51.040;13.782;2024-01-30T07:06:44;101780.38;;;6.67;59.49
33506;BME280;19843;51.040;13.782;2024-01-30T07:09:12;101784.56;;;6.60;61.08
33506;BME280;19843;51.040;13.782;2024-01-30T07:11:39;101782.22;;;7.03;59.40
33506;BME280;19843;51.040;13.782;2024-01-30T07:14:07;101786.91;;;7.07;59.43
33506;BME280;19843;51.040;13.782;2024-01-30T07:16:36;101776.09;;;7.06;58.99
33506;BME280;19843;51.040;13.782;2024-01-30T07:19:03;101788.72;;;6.52;60.35
33506;BME280;19843;51.040;13.782;2024-01-30T07:21:31;101785.78;;;7.13;59.08
33506;BME280;19843;51.040;13.782;2024-01-30T07:23:58;101788.94;;;6.86;59.46
33506;BME280;19843;51.040;13.782;2024-01-30T07:26:26;101790.69;;;6.26;61.36
33506;BME280;19843;51.040;13.782;2024-01-30T07:28:53;101798.44;;;6.65;60.00
33506;BME280;19843;51.040;13.782;2024-01-30T07:31:21;101786.56;;;6.13;60.93
33506;BME280;19843;51.040;13.782;2024-01-30T07:33:51;101774.69;;;7.08;58.93
33506;BME280;19843;51.040;13.782;2024-01-30T07:36:19;101784.44;;;7.01;59.40
33506;BME280;19843;51.040;13.782;2024-01-30T07:38:47;101790.88;;;6.86;59.74
33506;BME280;19843;51.040;13.782;2024-01-30T07:41:14;101781.47;;;7.41;58.35
33506;BME280;19843;51.040;13.782;2024-01-30T07:43:43;101783.72;;;6.59;59.04
33506;BME280;19843;51.040;13.782;2024-01-30T07:46:10;101781.88;;;7.14;59.20
33506;BME280;19843;51.040;13.782;2024-01-30T07:48:38;101780.50;;;7.12;59.12
33506;BME280;19843;51.040;13.782;2024-01-30T07:51:06;101772.53;;;7.94;56.73
33506;BME280;19843;51.040;13.782;2024-01-30T07:53:34;101764.56;;;7.77;56.53
33506;BME280;19843;51.040;13.782;2024-01-30T07:56:01;101782.44;;;7.22;58.55
33506;BME280;19843;51.040;13.782;2024-01-30T07:58:29;101789.72;;;6.92;58.24
33506;BME280;19843;51.040;13.782;2024-01-30T08:00:57;101780.22;;;7.63;57.07
33506;BME280;19843;51.040;13.782;2024-01-30T08:03:27;101787.53;;;7.49;57.12
33506;BME280;19843;51.040;13.782;2024-01-30T08:05:54;101781.38;;;8.30;55.89
33506;BME280;19843;51.040;13.782;2024-01-30T08:08:23;101788.31;;;7.64;56.35
33506;BME280;19843;51.040;13.782;2024-01-30T08:10:52;101778.50;;;8.11;55.40
33506;BME280;19843;51.040;13.782;2024-01-30T08:13:19;101779.44;;;8.31;55.59
33506;BME280;19843;51.040;13.782;2024-01-30T08:15:46;101779.47;;;8.60;54.19
33506;BME280;19843;51.040;13.782;2024-01-30T08:18:14;101774.81;;;7.82;56.31
33506;BME280;19843;51.040;13.782;2024-01-30T08:20:42;101779.53;;;8.55;54.66
33506;BME280;19843;51.040;13.782;2024-01-30T08:23:09;101763.19;;;8.72;53.53
33506;BME280;19843;51.040;13.782;2024-01-30T08:25:38;101770.22;;;8.40;54.33
33506;BME280;19843;51.040;13.782;2024-01-30T08:28:06;101766.47;;;9.03;53.21
33506;BME280;19843;51.040;13.782;2024-01-30T08:30:33;101768.44;;;8.79;53.08
33506;BME280;19843;51.040;13.782;2024-01-30T08:33:02;101775.91;;;8.78;53.88
33506;BME280;19843;51.040;13.782;2024-01-30T08:35:29;101768.66;;;9.25;52.87
33506;BME280;19843;51.040;13.782;2024-01-30T08:37:59;101772.44;;;8.91;54.00
33506;BME280;19843;51.040;13.782;2024-01-30T08:40:27;101781.59;;;8.68;53.60
33506;BME280;19843;51.040;13.782;2024-01-30T08:42:57;101775.38;;;9.24;52.31
33506;BME280;19843;51.040;13.782;2024-01-30T08:45:25;101778.91;;;9.30;52.36
33506;BME280;19843;51.040;13.782;2024-01-30T08:47:52;101781.81;;;8.48;54.01
33506;BME280;19843;51.040;13.782;2024-01-30T08:50:20;101778.38;;;8.85;53.35
33506;BME280;19843;51.040;13.782;2024-01-30T08:52:47;101769.88;;;8.95;53.35
33506;BME280;19843;51.040;13.782;2024-01-30T08:55:15;101768.53;;;9.16;52.31
33506;BME280;19843;51.040;13.782;2024-01-30T08:57:43;101768.16;;;8.17;54.55
33506;BME280;19843;51.040;13.782;2024-01-30T09:00:13;101770.22;;;9.74;51.32
33506;BME280;19843;51.040;13.782;2024-01-30T09:02:41;101780.44;;;8.98;52.67
33506;BME280;19843;51.040;13.782;2024-01-30T09:05:09;101782.44;;;8.92;52.97
33506;BME280;19843;51.040;13.782;2024-01-30T09:07:36;101778.75;;;10.15;49.84
33506;BME280;19843;51.040;13.782;2024-01-30T09:10:06;101802.44;;;9.00;52.32
33506;BME280;19843;51.040;13.782;2024-01-30T09:12:37;101793.44;;;9.51;51.53
33506;BME280;19843;51.040;13.782;2024-01-30T09:15:05;101799.69;;;9.18;52.03
33506;BME280;19843;51.040;13.782;2024-01-30T09:17:34;101802.56;;;9.56;51.22
33506;BME280;19843;51.040;13.782;2024-01-30T09:20:04;101806.25;;;9.89;49.67
33506;BME280;19843;51.040;13.782;2024-01-30T09:22:32;101818.63;;;9.21;51.13
33506;BME280;19843;51.040;13.782;2024-01-30T09:25:00;101813.06;;;9.83;51.03
33506;BME280;19843;51.040;13.782;2024-01-30T09:27:27;101824.13;;;9.03;52.63
33506;BME280;19843;51.040;13.782;2024-01-30T09:29:55;101829.75;;;10.40;49.75
33506;BME280;19843;51.040;13.782;2024-01-30T09:32:22;101818.47;;;10.12;49.57
33506;BME280;19843;51.040;13.782;2024-01-30T09:34:51;101826.09;;;10.07;49.78
33506;BME280;19843;51.040;13.782;2024-01-30T09:37:19;101826.34;;;9.48;51.79
33506;BME280;19843;51.040;13.782;2024-01-30T09:39:49;101821.41;;;9.83;50.31
33506;BME280;19843;51.040;13.782;2024-01-30T09:42:21;101799.28;;;10.24;50.55
33506;BME280;19843;51.040;13.782;2024-01-30T09:44:53;101810.75;;;10.04;50.38
33506;BME280;19843;51.040;13.782;2024-01-30T09:47:21;101800.44;;;10.05;50.68
33506;BME280;19843;51.040;13.782;2024-01-30T09:49:50;101800.13;;;10.06;49.77
33506;BME280;19843;51.040;13.782;2024-01-30T09:52:18;101806.31;;;9.46;50.64
33506;BME280;19843;51.040;13.782;2024-01-30T09:54:47;101804.34;;;10.04;50.74
33506;BME280;19843;51.040;13.782;2024-01-30T09:57:16;101791.84;;;10.01;48.91
33506;BME280;19843;51.040;13.782;2024-01-30T09:59:44;101790.19;;;9.81;50.28
33506;BME280;19843;51.040;13.782;2024-01-30T10:02:12;101780.66;;;10.52;49.28
33506;BME280;19843;51.040;13.782;2024-01-30T10:04:40;101786.53;;;10.37;49.19
33506;BME280;19843;51.040;13.782;2024-01-30T10:07:10;101789.00;;;10.20;48.74
33506;BME280;19843;51.040;13.782;2024-01-30T10:09:37;101775.41;;;9.99;49.60
33506;BME280;19843;51.040;13.782;2024-01-30T10:12:05;101775.69;;;10.17;49.78
33506;BME280;19843;51.040;13.782;2024-01-30T10:14:34;101773.56;;;10.74;47.99
33506;BME280;19843;51.040;13.782;2024-01-30T10:17:01;101772.28;;;10.52;48.46
33506;BME280;19843;51.040;13.782;2024-01-30T10:19:37;101766.78;;;10.47;48.36
33506;BME280;19843;51.040;13.782;2024-01-30T10:22:05;101772.22;;;10.25;49.02
33506;BME280;19843;51.040;13.782;2024-01-30T10:24:34;101761.47;;;9.81;50.55
33506;BME280;19843;51.040;13.782;2024-01-30T10:27:02;101761.72;;;10.36;48.60
33506;BME280;19843;51.040;13.782;2024-01-30T10:29:30;101757.06;;;10.31;48.92
33506;BME280;19843;51.040;13.782;2024-01-30T10:31:58;101755.84;;;10.51;48.37
33506;BME280;19843;51.040;13.782;2024-01-30T10:34:26;101750.25;;;11.20;46.83
33506;BME280;19843;51.040;13.782;2024-01-30T10:36:59;101744.47;;;9.96;48.49
33506;BME280;19843;51.040;13.782;2024-01-30T10:39:29;101760.88;;;9.84;49.21
33506;BME280;19843;51.040;13.782;2024-01-30T10:42:03;101737.97;;;10.66;47.95
33506;BME280;19843;51.040;13.782;2024-01-30T10:44:48;101754.94;;;10.69;47.54
33506;BME280;19843;51.040;13.782;2024-01-30T10:47:25;101754.84;;;10.88;46.85
33506;BME280;19843;51.040;13.782;2024-01-30T10:49:54;101746.50;;;10.09;48.08
33506;BME280;19843;51.040;13.782;2024-01-30T10:52:23;101753.47;;;10.44;47.77
33506;BME280;19843;51.040;13.782;2024-01-30T10:54:54;101734.47;;;10.74;46.54
33506;BME280;19843;51.040;13.782;2024-01-30T10:57:23;101733.31;;;9.96;48.27
33506;BME280;19843;51.040;13.782;2024-01-30T10:59:52;101725.09;;;11.20;46.49
33506;BME280;19843;51.040;13.782;2024-01-30T11:02:20;101722.44;;;11.01;46.63
33506;BME280;19843;51.040;13.782;2024-01-30T11:04:55;101723.44;;;10.04;48.25
33506;BME280;19843;51.040;13.782;2024-01-30T11:07:24;101724.50;;;10.95;47.15
33506;BME280;19843;51.040;13.782;2024-01-30T11:09:53;101732.50;;;10.88;46.73
33506;BME280;19843;51.040;13.782;2024-01-30T11:12:23;101727.69;;;10.47;47.99
33506;BME280;19843;51.040;13.782;2024-01-30T11:15:02;101724.38;;;10.32;47.82
33506;BME280;19843;51.040;13.782;2024-01-30T11:17:41;101719.31;;;10.34;48.00
33506;BME280;19843;51.040;13.782;2024-01-30T11:20:10;101717.47;;;9.59;49.57
33506;BME280;19843;51.040;13.782;2024-01-30T11:22:41;101706.59;;;10.41;48.23
33506;BME280;19843;51.040;13.782;2024-01-30T11:25:11;101704.53;;;11.16;46.86
33506;BME280;19843;51.040;13.782;2024-01-30T11:27:41;101706.41;;;10.65;47.82
33506;BME280;19843;51.040;13.782;2024-01-30T11:30:09;101707.38;;;9.95;49.09
33506;BME280;19843;51.040;13.782;2024-01-30T11:32:37;101697.91;;;10.10;48.63
33506;BME280;19843;51.040;13.782;2024-01-30T11:35:05;101692.38;;;9.91;48.38
33506;BME280;19843;51.040;13.782;2024-01-30T11:37:37;101689.84;;;10.41;48.06
33506;BME280;19843;51.040;13.782;2024-01-30T11:40:06;101691.00;;;10.68;47.11
33506;BME280;19843;51.040;13.782;2024-01-30T11:42:36;101689.75;;;10.33;47.50
33506;BME280;19843;51.040;13.782;2024-01-30T11:45:07;101696.97;;;10.34;47.07
33506;BME280;19843;51.040;13.782;2024-01-30T11:47:35;101690.00;;;10.17;47.72
33506;BME280;19843;51.040;13.782;2024-01-30T11:50:07;101699.28;;;10.59;48.09
33506;BME280;19843;51.040;13.782;2024-01-30T11:52:37;101695.09;;;10.29;47.74
33506;BME280;19843;51.040;13.782;2024-01-30T11:55:05;101697.63;;;10.44;48.21
33506;BME280;19843;51.040;13.782;2024-01-30T11:57:34;101683.88;;;9.69;49.80
33506;BME280;19843;51.040;13.782;2024-01-30T12:00:04;101687.16;;;10.77;48.16
33506;BME280;19843;51.040;13.782;2024-01-30T12:02:38;101680.00;;;10.30;48.61
33506;BME280;19843;51.040;13.782;2024-01-30T12:05:06;101680.03;;;10.58;48.69
33506;BME280;19843;51.040;13.782;2024-01-30T12:07:34;101681.50;;;10.55;48.35
33506;BME280;19843;51.040;13.782;2024-01-30T12:10:02;101678.59;;;10.74;48.44
33506;BME280;19843;51.040;13.782;2024-01-30T12:12:30;101674.09;;;9.85;50.13
33506;BME280;19843;51.040;13.782;2024-01-30T12:14:57;101675.47;;;10.89;47.80
33506;BME280;19843;51.040;13.782;2024-01-30T12:17:28;101670.13;;;10.05;49.50
33506;BME280;19843;51.040;13.782;2024-01-30T12:20:07;101683.66;;;9.98;49.75
33506;BME280;19843;51.040;13.782;2024-01-30T12:22:39;101678.19;;;10.20;49.02
33506;BME280;19843;51.040;13.782;2024-01-30T12:25:08;101660.50;;;9.65;50.80
33506;BME280;19843;51.040;13.782;2024-01-30T12:27:36;101670.94;;;9.73;50.13
33506;BME280;19843;51.040;13.782;2024-01-30T12:30:05;101669.28;;;9.72;50.61
33506;BME280;19843;51.040;13.782;2024-01-30T12:32:34;101667.50;;;9.62;50.90
33506;BME280;19843;51.040;13.782;2024-01-30T12:35:02;101659.31;;;9.52;51.21
33506;BME280;19843;51.040;13.782;2024-01-30T12:37:31;101655.22;;;9.63;50.81
33506;BME280;19843;51.040;13.782;2024-01-30T12:39:59;101667.19;;;9.83;50.66
33506;BME280;19843;51.040;13.782;2024-01-30T12:42:27;101653.59;;;9.43;50.91
33506;BME280;19843;51.040;13.782;2024-01-30T12:44:56;101656.72;;;10.21;49.97
33506;BME280;19843;51.040;13.782;2024-01-30T12:47:24;101650.00;;;9.75;50.75
33506;BME280;19843;51.040;13.782;2024-01-30T12:49:52;101635.88;;;10.32;49.31
33506;BME280;19843;51.040;13.782;2024-01-30T12:52:21;101641.56;;;9.94;50.07